Back to Top

Language: 

My Weather Underground Personal Weather Station Historical Data with Graphs...

Delerius Weather Station Historical Data
Daily Summary for July 18, 2017 Units:  Metric    English   Both
« Previous Day
Next Day »
Daily Weekly Monthly Yearly Custom
  High: Low: Average:
Temperature: 24.9 °C 11.2 °C 18.2 °C
Dew Point: 14.8 °C 9.8 °C 12.3 °C
Humidity: 92 % 44 % 71 %
Wind Speed: 17.7 km/h 0 km/h 6.6 km/h
Wind Gust: 37 km/h - -
Wind:- - ESE
Pressure: 1021.6 hPa 1013.4 hPa -
Precipitation: 0 mm    
Historical Graphs
 
 
Tabular Data for July 18, 2017
Time Temperature Dew Point Pressure Wind Wind Speed Wind Gust Humidity Rainfall Rate (Hourly) solar Conditions
00:00 15.3 °C 10.5 °C 1021.6 hPa Calm   3.2 km/h 73 % 0 mm 0 W/m2
00:05 15.2 °C 10.6 °C 1021.6 hPa Calm   3.2 km/h 74 % 0 mm 0 W/m2
00:10 15.1 °C 10.7 °C 1021.6 hPa Calm     75 % 0 mm 0 W/m2
00:15 15 °C 10.6 °C 1021.6 hPa Calm   1.6 km/h 75 % 0 mm 0 W/m2
00:20 15 °C 10.6 °C 1021.6 hPa Calm   1.6 km/h 75 % 0 mm 0 W/m2
00:25 14.8 °C 10.6 °C 1021.6 hPa Calm   3.2 km/h 76 % 0 mm 0 W/m2
00:30 14.7 °C 10.5 °C 1021.6 hPa Calm   3.2 km/h 76 % 0 mm 0 W/m2
00:35 14.6 °C 10.6 °C 1021.6 hPa Calm     77 % 0 mm 0 W/m2
00:40 14.4 °C 10.4 °C 1021.6 hPa Calm   3.2 km/h 77 % 0 mm 0 W/m2
00:45 14.3 °C 10.5 °C 1021.6 hPa Calm   3.2 km/h 78 % 0 mm 0 W/m2
00:50 14.2 °C 10.4 °C 1021.6 hPa Calm   4.8 km/h 78 % 0 mm 0 W/m2
00:55 14.1 °C 10.5 °C 1021.6 hPa WNW 1.6 km/h 4.8 km/h 79 % 0 mm 0 W/m2
01:00 14 °C 10.4 °C 1021.6 hPa WNW 1.6 km/h 4.8 km/h 79 % 0 mm 0 W/m2
01:05 13.9 °C 10.3 °C 1021.6 hPa Calm   3.2 km/h 79 % 0 mm 0 W/m2
01:10 13.8 °C 10.4 °C 1021.6 hPa Calm     80 % 0 mm 0 W/m2
01:15 13.8 °C 10.6 °C 1021.6 hPa Calm   1.6 km/h 81 % 0 mm 0 W/m2
01:20 13.7 °C 10.5 °C 1021.6 hPa Calm   1.6 km/h 81 % 0 mm 0 W/m2
01:25 13.7 °C 10.5 °C 1021.6 hPa Calm     81 % 0 mm 0 W/m2
01:30 13.6 °C 10.4 °C 1021.6 hPa Calm     81 % 0 mm 0 W/m2
01:35 13.6 °C 10.6 °C 1021.6 hPa Calm   3.2 km/h 82 % 0 mm 0 W/m2
01:36 13.6 °C 10.6 °C 1021.6 hPa Calm   3.2 km/h 82 % 0 mm 0 W/m2
01:41 13.4 °C 10.4 °C 1021.2 hPa Calm   3.2 km/h 82 % 0 mm 0 W/m2
01:46 13.3 °C 10.3 °C 1021.2 hPa Calm     82 % 0 mm 0 W/m2
01:51 13.3 °C 10.5 °C 1021.2 hPa Calm     83 % 0 mm 0 W/m2
01:56 13.2 °C 10.4 °C 1021.2 hPa Calm     83 % 0 mm 0 W/m2
02:01 13.2 °C 10.6 °C 1021.2 hPa Calm     84 % 0 mm 0 W/m2
02:06 13.2 °C 10.6 °C 1021.2 hPa Calm     84 % 0 mm 0 W/m2
02:11 13.1 °C 10.4 °C 1021.2 hPa Calm     84 % 0 mm 0 W/m2
02:16 13 °C 10.3 °C 1021.2 hPa Calm     84 % 0 mm 0 W/m2
02:21 12.9 °C 10.3 °C 1021.2 hPa Calm     84 % 0 mm 0 W/m2
02:26 12.9 °C 10.4 °C 1021.2 hPa Calm     85 % 0 mm 0 W/m2
02:31 12.8 °C 10.3 °C 1021.2 hPa Calm     85 % 0 mm 0 W/m2
02:36 12.7 °C 10.2 °C 1021.2 hPa Calm     85 % 0 mm 0 W/m2
02:41 12.6 °C 10.2 °C 1021.2 hPa Calm     85 % 0 mm 0 W/m2
02:46 12.6 °C 10.2 °C 1021.2 hPa Calm     85 % 0 mm 0 W/m2
02:51 12.4 °C 10.1 °C 1021.2 hPa Calm     86 % 0 mm 0 W/m2
02:56 12.4 °C 10.1 °C 1020.9 hPa Calm     86 % 0 mm 0 W/m2
03:01 12.3 °C 10 °C 1020.9 hPa Calm     86 % 0 mm 0 W/m2
03:06 12.3 °C 10.2 °C 1020.9 hPa Calm     87 % 0 mm 0 W/m2
03:11 12.3 °C 10.2 °C 1020.9 hPa Calm     87 % 0 mm 0 W/m2
03:16 12.2 °C 10.1 °C 1020.9 hPa Calm     87 % 0 mm 0 W/m2
03:21 12.2 °C 10.3 °C 1020.9 hPa Calm   3.2 km/h 88 % 0 mm 0 W/m2
03:26 12.1 °C 10.2 °C 1020.9 hPa Calm   3.2 km/h 88 % 0 mm 0 W/m2
03:31 12.1 °C 10.2 °C 1020.9 hPa Calm   3.2 km/h 88 % 0 mm 0 W/m2
03:32 12.1 °C 10.2 °C 1020.9 hPa Calm   3.2 km/h 88 % 0 mm 0 W/m2
03:37 12 °C 10.1 °C 1020.9 hPa Calm     88 % 0 mm 0 W/m2
03:42 12 °C 10.2 °C 1020.9 hPa Calm     89 % 0 mm 0 W/m2
03:47 12 °C 10.2 °C 1020.5 hPa Calm     89 % 0 mm 0 W/m2
03:52 11.9 °C 10 °C 1020.5 hPa Calm     88 % 0 mm 0 W/m2
03:57 11.8 °C 10.1 °C 1020.5 hPa Calm     89 % 0 mm 0 W/m2
04:02 11.8 °C 10.1 °C 1020.9 hPa Calm   3.2 km/h 89 % 0 mm 0 W/m2
04:07 11.8 °C 10.2 °C 1020.5 hPa WNW 1.6 km/h 6.4 km/h 90 % 0 mm 0 W/m2
04:12 11.8 °C 10.4 °C 1020.5 hPa Calm   6.4 km/h 91 % 0 mm 0 W/m2
04:17 11.8 °C 10.2 °C 1020.5 hPa Calm   1.6 km/h 90 % 0 mm 0 W/m2
04:22 11.8 °C 10.2 °C 1020.5 hPa Calm     90 % 0 mm 0 W/m2
04:27 11.7 °C 10.3 °C 1020.5 hPa Calm     91 % 0 mm 0 W/m2
04:32 11.7 °C 10.1 °C 1020.5 hPa Calm     90 % 0 mm 0 W/m2
04:37 11.6 °C 10 °C 1020.5 hPa Calm     90 % 0 mm 0 W/m2
04:42 11.6 °C 10.2 °C 1020.9 hPa Calm     91 % 0 mm 0 W/m2
04:47 11.4 °C 10 °C 1020.9 hPa Calm     91 % 0 mm 0 W/m2
04:52 11.4 °C 10 °C 1020.5 hPa Calm     91 % 0 mm 5 W/m2
04:57 11.4 °C 10 °C 1020.5 hPa Calm     91 % 0 mm 7 W/m2
05:03 11.3 °C 9.9 °C 1020.5 hPa Calm     91 % 0 mm 9 W/m2
05:08 11.3 °C 9.9 °C 1020.5 hPa Calm     91 % 0 mm 9 W/m2
05:13 11.2 °C 9.8 °C 1020.5 hPa Calm     91 % 0 mm 12 W/m2
05:18 11.2 °C 9.9 °C 1020.5 hPa Calm     92 % 0 mm 14 W/m2
05:23 11.3 °C 9.9 °C 1020.5 hPa Calm     91 % 0 mm 18 W/m2
05:28 11.2 °C 9.8 °C 1020.5 hPa Calm     91 % 0 mm 23 W/m2
05:33 11.2 °C 9.8 °C 1020.5 hPa Calm     91 % 0 mm 26 W/m2
05:38 11.2 °C 9.8 °C 1020.5 hPa Calm     91 % 0 mm 30 W/m2
05:43 11.2 °C 9.9 °C 1020.5 hPa Calm     92 % 0 mm 33 W/m2
05:48 11.2 °C 9.9 °C 1020.5 hPa Calm     92 % 0 mm 32 W/m2
05:53 11.2 °C 9.9 °C 1020.5 hPa Calm     92 % 0 mm 33 W/m2
05:58 11.3 °C 10.1 °C 1020.5 hPa Calm     92 % 0 mm 35 W/m2
06:03 11.3 °C 10.1 °C 1020.5 hPa Calm     92 % 0 mm 39 W/m2
06:08 11.4 °C 10.2 °C 1020.5 hPa Calm     92 % 0 mm 42 W/m2
06:13 11.4 °C 10.2 °C 1020.5 hPa Calm     92 % 0 mm 44 W/m2
06:18 11.5 °C 10.2 °C 1020.5 hPa Calm     92 % 0 mm 46 W/m2
06:23 11.6 °C 10.3 °C 1020.5 hPa Calm     92 % 0 mm 56 W/m2
06:28 11.7 °C 10.4 °C 1020.5 hPa Calm     92 % 0 mm 58 W/m2
06:33 11.8 °C 10.6 °C 1020.5 hPa Calm     92 % 0 mm 67 W/m2
06:38 11.8 °C 10.6 °C 1020.5 hPa Calm     92 % 0 mm 77 W/m2
06:43 12 °C 10.7 °C 1020.5 hPa Calm     92 % 0 mm 74 W/m2
06:48 12.2 °C 10.9 °C 1020.5 hPa Calm     92 % 0 mm 81 W/m2
06:53 12.3 °C 11.1 °C 1020.5 hPa Calm     92 % 0 mm 93 W/m2
06:58 12.5 °C 11.2 °C 1020.5 hPa Calm     92 % 0 mm 118 W/m2
07:03 12.7 °C 11.4 °C 1020.5 hPa Calm     92 % 0 mm 102 W/m2
07:08 12.9 °C 11.6 °C 1020.5 hPa Calm     92 % 0 mm 93 W/m2
07:13 13.2 °C 11.9 °C 1020.5 hPa Calm     92 % 0 mm 118 W/m2
07:18 13.4 °C 11.9 °C 1020.5 hPa Calm   1.6 km/h 91 % 0 mm 100 W/m2
07:23 13.6 °C 12.2 °C 1020.5 hPa Calm   1.6 km/h 91 % 0 mm 239 W/m2
07:28 13.9 °C 12.4 °C 1020.5 hPa Calm   3.2 km/h 91 % 0 mm 250 W/m2
07:33 14.2 °C 12.6 °C 1020.5 hPa Calm   3.2 km/h 90 % 0 mm 265 W/m2
07:38 14.6 °C 13 °C 1020.5 hPa WNW 1.6 km/h 6.4 km/h 90 % 0 mm 285 W/m2
07:43 14.8 °C 12.8 °C 1020.5 hPa West 1.6 km/h 6.4 km/h 88 % 0 mm 297 W/m2
07:48 15.1 °C 12.9 °C 1020.5 hPa SW 1.6 km/h 6.4 km/h 87 % 0 mm 251 W/m2
07:53 15.3 °C 12.9 °C 1020.5 hPa SW 1.6 km/h 8 km/h 86 % 0 mm 262 W/m2
07:59 15.6 °C 13.1 °C 1020.5 hPa SSW 1.6 km/h 8 km/h 85 % 0 mm 327 W/m2
08:04 16 °C 13.1 °C 1020.2 hPa ESE 1.6 km/h 8 km/h 83 % 0 mm 338 W/m2
08:08 16.3 °C 13.2 °C 1020.2 hPa ENE 1.6 km/h 8 km/h 82 % 0 mm 315 W/m2
08:13 16.8 °C 13.5 °C 1020.2 hPa ENE 1.6 km/h 6.4 km/h 81 % 0 mm 399 W/m2
08:19 17.2 °C 13.5 °C 1020.2 hPa ENE 1.6 km/h 6.4 km/h 79 % 0 mm 403 W/m2
08:24 17.4 °C 13.5 °C 1020.2 hPa ENE 1.6 km/h 9.7 km/h 78 % 0 mm 383 W/m2
08:29 17.5 °C 13.6 °C 1020.2 hPa ENE 1.6 km/h 9.7 km/h 78 % 0 mm 424 W/m2
08:34 17.7 °C 13.6 °C 1020.2 hPa ENE 3.2 km/h 11.3 km/h 77 % 0 mm 383 W/m2
08:39 17.9 °C 13.8 °C 1020.2 hPa ENE 3.2 km/h 11.3 km/h 77 % 0 mm 396 W/m2
08:44 18.1 °C 13.8 °C 1020.2 hPa ENE 1.6 km/h 8 km/h 76 % 0 mm 429 W/m2
08:49 18.2 °C 13.9 °C 1020.2 hPa NE 3.2 km/h 9.7 km/h 76 % 0 mm 417 W/m2
08:54 18.2 °C 13.9 °C 1020.2 hPa NE 4.8 km/h 11.3 km/h 76 % 0 mm 448 W/m2
08:59 18.2 °C 14.1 °C 1020.2 hPa NE 4.8 km/h 11.3 km/h 77 % 0 mm 434 W/m2
09:04 18.1 °C 14 °C 1020.2 hPa ENE 4.8 km/h 11.3 km/h 77 % 0 mm 478 W/m2
09:09 18 °C 13.9 °C 1020.2 hPa NE 6.4 km/h 12.9 km/h 77 % 0 mm 448 W/m2
09:14 17.9 °C 14 °C 1020.2 hPa NE 6.4 km/h 14.5 km/h 78 % 0 mm 489 W/m2
09:19 17.9 °C 14 °C 1019.9 hPa NE 6.4 km/h 14.5 km/h 78 % 0 mm 506 W/m2
09:24 17.9 °C 14.2 °C 1019.9 hPa NE 4.8 km/h 11.3 km/h 79 % 0 mm 545 W/m2
09:29 18.1 °C 14.4 °C 1019.9 hPa NE 4.8 km/h 11.3 km/h 79 % 0 mm 550 W/m2
09:34 18.2 °C 14.1 °C 1019.9 hPa NE 6.4 km/h 11.3 km/h 77 % 0 mm 527 W/m2
09:39 18.2 °C 14.3 °C 1019.9 hPa NE 4.8 km/h 11.3 km/h 78 % 0 mm 545 W/m2
09:44 18.2 °C 14.3 °C 1019.9 hPa ENE 4.8 km/h 12.9 km/h 78 % 0 mm 538 W/m2
09:49 18.2 °C 14.3 °C 1019.9 hPa NE 4.8 km/h 12.9 km/h 78 % 0 mm 578 W/m2
09:54 18.4 °C 14.5 °C 1019.9 hPa NNE 3.2 km/h 12.9 km/h 78 % 0 mm 561 W/m2
09:59 18.5 °C 14.4 °C 1019.9 hPa NE 3.2 km/h 12.9 km/h 77 % 0 mm 612 W/m2
10:04 18.9 °C 14.6 °C 1019.9 hPa ENE 1.6 km/h 11.3 km/h 76 % 0 mm 582 W/m2
10:09 19.3 °C 14.8 °C 1019.9 hPa East 1.6 km/h 8 km/h 75 % 0 mm 619 W/m2
10:14 19.5 °C 14.7 °C 1019.9 hPa ESE 4.8 km/h 11.3 km/h 74 % 0 mm 645 W/m2
10:19 19.6 °C 14.6 °C 1019.5 hPa ESE 3.2 km/h 11.3 km/h 73 % 0 mm 661 W/m2
10:21 19.7 °C 14.7 °C 1019.5 hPa East 3.2 km/h 11.3 km/h 73 % 0 mm 664 W/m2
10:26 19.9 °C 14.7 °C 1019.5 hPa East 4.8 km/h 12.9 km/h 72 % 0 mm 670 W/m2
10:31 20.2 °C 14.8 °C 1019.5 hPa East 3.2 km/h 12.9 km/h 71 % 0 mm 663 W/m2
10:36 20.3 °C 14.4 °C 1019.5 hPa East 4.8 km/h 9.7 km/h 69 % 0 mm 666 W/m2
10:41 20.6 °C 14.7 °C 1019.5 hPa East 4.8 km/h 12.9 km/h 69 % 0 mm 701 W/m2
10:46 20.7 °C 14.6 °C 1019.5 hPa East 6.4 km/h 12.9 km/h 68 % 0 mm 682 W/m2
10:51 21.1 °C 14.5 °C 1019.2 hPa ESE 6.4 km/h 14.5 km/h 66 % 0 mm 647 W/m2
10:56 21.2 °C 14.3 °C 1019.2 hPa ESE 8 km/h 16.1 km/h 65 % 0 mm 638 W/m2
11:01 21.3 °C 14.4 °C 1019.2 hPa ESE 6.4 km/h 16.1 km/h 65 % 0 mm 694 W/m2
11:06 21.6 °C 14.5 °C 1019.2 hPa ESE 6.4 km/h 16.1 km/h 64 % 0 mm 759 W/m2
11:11 21.7 °C 14.1 °C 1019.2 hPa ESE 8 km/h 16.1 km/h 62 % 0 mm 779 W/m2
11:16 21.8 °C 14.4 °C 1018.8 hPa ESE 8 km/h 14.5 km/h 63 % 0 mm 615 W/m2
11:21 22 °C 14.4 °C 1018.8 hPa ESE 6.4 km/h 14.5 km/h 62 % 0 mm 642 W/m2
11:26 22.2 °C 14.1 °C 1018.8 hPa ESE 8 km/h 14.5 km/h 60 % 0 mm 682 W/m2
11:31 22.4 °C 14 °C 1018.8 hPa East 8 km/h 17.7 km/h 59 % 0 mm 640 W/m2
11:36 22.5 °C 13.8 °C 1018.8 hPa ESE 9.7 km/h 17.7 km/h 58 % 0 mm 606 W/m2
11:41 22.5 °C 13.8 °C 1018.8 hPa ESE 8 km/h 17.7 km/h 58 % 0 mm 621 W/m2
11:46 22.6 °C 13.7 °C 1018.5 hPa ESE 8 km/h 19.3 km/h 57 % 0 mm 606 W/m2
11:51 22.8 °C 14.1 °C 1018.5 hPa ESE 9.7 km/h 19.3 km/h 58 % 0 mm 635 W/m2
11:56 22.9 °C 13.7 °C 1018.5 hPa ESE 11.3 km/h 24.1 km/h 56 % 0 mm 621 W/m2
12:01 22.9 °C 13.7 °C 1018.5 hPa SE 12.9 km/h 24.1 km/h 56 % 0 mm 642 W/m2
12:06 23.2 °C 13.9 °C 1018.5 hPa ESE 12.9 km/h 22.5 km/h 56 % 0 mm 761 W/m2
12:11 23.3 °C 14.1 °C 1018.2 hPa ESE 12.9 km/h 24.1 km/h 56 % 0 mm 749 W/m2
12:16 23.6 °C 14.1 °C 1018.2 hPa ESE 12.9 km/h 24.1 km/h 55 % 0 mm 708 W/m2
12:21 23.4 °C 13.8 °C 1018.2 hPa East 11.3 km/h 20.9 km/h 55 % 0 mm 726 W/m2
12:26 23.6 °C 14.1 °C 1018.2 hPa East 11.3 km/h 24.1 km/h 55 % 0 mm 768 W/m2
12:31 23.8 °C 13.3 °C 1018.2 hPa ESE 12.9 km/h 24.1 km/h 52 % 0 mm 884 W/m2
12:36 23.8 °C 12.4 °C 1018.2 hPa ESE 14.5 km/h 24.1 km/h 49 % 0 mm 777 W/m2
12:41 23.8 °C 12.4 °C 1017.8 hPa ESE 14.5 km/h 24.1 km/h 49 % 0 mm 594 W/m2
12:46 23.8 °C 12.4 °C 1017.8 hPa ESE 14.5 km/h 24.1 km/h 49 % 0 mm 555 W/m2
12:51 23.8 °C 12.4 °C 1017.8 hPa ESE 12.9 km/h 24.1 km/h 49 % 0 mm 554 W/m2
12:56 23.8 °C 12.1 °C 1017.8 hPa SE 14.5 km/h 25.7 km/h 48 % 0 mm 540 W/m2
13:01 23.9 °C 12.6 °C 1017.8 hPa SE 12.9 km/h 25.7 km/h 49 % 0 mm 865 W/m2
13:06 24.1 °C 12.7 °C 1017.5 hPa ESE 12.9 km/h 24.1 km/h 49 % 0 mm 582 W/m2
13:08 24.1 °C 13 °C 1017.5 hPa ESE 12.9 km/h 24.1 km/h 50 % 0 mm 548 W/m2
13:13 24.1 °C 13.3 °C 1017.5 hPa ESE 14.5 km/h 24.1 km/h 51 % 0 mm 506 W/m2
13:18 24 °C 12.9 °C 1017.5 hPa ESE 12.9 km/h 20.9 km/h 50 % 0 mm 582 W/m2
13:23 24.1 °C 13.3 °C 1017.5 hPa ESE 12.9 km/h 19.3 km/h 51 % 0 mm 689 W/m2
13:28 24.3 °C 13.2 °C 1017.2 hPa ESE 12.9 km/h 24.1 km/h 50 % 0 mm 689 W/m2
13:33 24.5 °C 13.4 °C 1017.2 hPa ESE 12.9 km/h 25.7 km/h 50 % 0 mm 693 W/m2
13:38 24.7 °C 13.3 °C 1017.2 hPa ESE 14.5 km/h 30.6 km/h 49 % 0 mm 1039 W/m2
13:43 24.9 °C 12.8 °C 1017.2 hPa ESE 17.7 km/h 37 km/h 47 % 0 mm 1048 W/m2
13:48 24.8 °C 12.7 °C 1017.2 hPa ESE 17.7 km/h 37 km/h 47 % 0 mm 974 W/m2
13:53 24.8 °C 12.7 °C 1017.2 hPa ESE 16.1 km/h 29 km/h 47 % 0 mm 932 W/m2
13:55 24.9 °C 12.5 °C 1017.2 hPa ESE 16.1 km/h 29 km/h 46 % 0 mm 904 W/m2
14:00 24.8 °C 12.4 °C 1016.8 hPa ESE 16.1 km/h 29 km/h 46 % 0 mm 888 W/m2
14:05 24.8 °C 12.1 °C 1017.2 hPa ESE 16.1 km/h 25.7 km/h 45 % 0 mm 884 W/m2
14:11 24.8 °C 12.1 °C 1016.8 hPa ESE 16.1 km/h 29 km/h 45 % 0 mm 886 W/m2
14:16 24.8 °C 12.7 °C 1016.8 hPa ESE 16.1 km/h 29 km/h 47 % 0 mm 879 W/m2
14:21 24.9 °C 12.5 °C 1016.8 hPa ESE 14.5 km/h 24.1 km/h 46 % 0 mm 865 W/m2
14:26 24.8 °C 12.4 °C 1016.8 hPa ESE 14.5 km/h 33.8 km/h 46 % 0 mm 863 W/m2
14:31 24.9 °C 12.5 °C 1016.8 hPa ESE 14.5 km/h 33.8 km/h 46 % 0 mm 872 W/m2
14:36 24.8 °C 12.1 °C 1016.5 hPa ESE 14.5 km/h 25.7 km/h 45 % 0 mm 872 W/m2
14:41 24.5 °C 12.4 °C 1016.5 hPa ESE 16.1 km/h 25.7 km/h 47 % 0 mm 844 W/m2
14:46 24.7 °C 12.6 °C 1016.5 hPa ESE 16.1 km/h 25.7 km/h 47 % 0 mm 775 W/m2
14:51 24.7 °C 12.6 °C 1016.5 hPa ESE 12.9 km/h 25.7 km/h 47 % 0 mm 809 W/m2
14:56 24.7 °C 12.3 °C 1016.5 hPa ESE 14.5 km/h 30.6 km/h 46 % 0 mm 803 W/m2
15:01 24.7 °C 12.6 °C 1016.5 hPa ESE 14.5 km/h 30.6 km/h 47 % 0 mm 754 W/m2
15:06 24.8 °C 12.1 °C 1016.5 hPa ESE 14.5 km/h 32.2 km/h 45 % 0 mm 851 W/m2
15:11 24.7 °C 11.9 °C 1016.5 hPa ESE 16.1 km/h 32.2 km/h 45 % 0 mm 849 W/m2
15:16 24.9 °C 11.8 °C 1016.5 hPa ESE 16.1 km/h 30.6 km/h 44 % 0 mm 824 W/m2
15:17 24.8 °C 11.7 °C 1016.5 hPa ESE 14.5 km/h 30.6 km/h 44 % 0 mm 745 W/m2
15:22 24.8 °C 12.1 °C 1016.5 hPa East 14.5 km/h 25.7 km/h 45 % 0 mm 802 W/m2
15:27 24.7 °C 12.3 °C 1016.5 hPa East 14.5 km/h 29 km/h 46 % 0 mm 779 W/m2
15:32 24.7 °C 11.9 °C 1016.5 hPa ESE 14.5 km/h 29 km/h 45 % 0 mm 765 W/m2
15:37 24.6 °C 12.2 °C 1016.1 hPa ESE 14.5 km/h 25.7 km/h 46 % 0 mm 726 W/m2
15:42 24.7 °C 12.3 °C 1016.1 hPa ESE 14.5 km/h 29 km/h 46 % 0 mm 744 W/m2
15:47 24.6 °C 11.9 °C 1016.1 hPa ESE 14.5 km/h 29 km/h 45 % 0 mm 740 W/m2
15:52 24.4 °C 12 °C 1016.1 hPa East 14.5 km/h 24.1 km/h 46 % 0 mm 721 W/m2
15:57 24.4 °C 12.3 °C 1015.8 hPa East 12.9 km/h 24.1 km/h 47 % 0 mm 698 W/m2
16:02 24.2 °C 12.2 °C 1015.8 hPa East 12.9 km/h 24.1 km/h 47 % 0 mm 722 W/m2
16:07 24.2 °C 12.2 °C 1015.8 hPa East 14.5 km/h 24.1 km/h 47 % 0 mm 661 W/m2
16:12 24.1 °C 12.7 °C 1015.5 hPa East 14.5 km/h 24.1 km/h 49 % 0 mm 696 W/m2
16:14 24.1 °C 12.7 °C 1015.5 hPa East 16.1 km/h 25.7 km/h 49 % 0 mm 664 W/m2
16:19 24.1 °C 12.7 °C 1015.5 hPa East 14.5 km/h 25.7 km/h 49 % 0 mm 689 W/m2
16:25 24.3 °C 12.6 °C 1015.5 hPa East 12.9 km/h 22.5 km/h 48 % 0 mm 631 W/m2
16:30 24.3 °C 12.6 °C 1015.5 hPa East 12.9 km/h 25.7 km/h 48 % 0 mm 628 W/m2
16:35 24.4 °C 12.3 °C 1015.5 hPa East 12.9 km/h 25.7 km/h 47 % 0 mm 657 W/m2
16:40 24.6 °C 12.8 °C 1015.5 hPa East 11.3 km/h 24.1 km/h 48 % 0 mm 677 W/m2
16:45 24.6 °C 12.8 °C 1015.5 hPa East 11.3 km/h 24.1 km/h 48 % 0 mm 642 W/m2
16:50 24.5 °C 12.4 °C 1015.5 hPa East 12.9 km/h 32.2 km/h 47 % 0 mm 573 W/m2
16:55 24.3 °C 12.6 °C 1015.5 hPa ESE 14.5 km/h 32.2 km/h 48 % 0 mm 587 W/m2
17:00 24.3 °C 12.6 °C 1015.5 hPa ESE 14.5 km/h 29 km/h 48 % 0 mm 608 W/m2
17:05 24.4 °C 13.3 °C 1015.5 hPa ESE 12.9 km/h 29 km/h 50 % 0 mm 589 W/m2
17:10 24.3 °C 12.3 °C 1015.5 hPa ESE 12.9 km/h 24.1 km/h 47 % 0 mm 243 W/m2
17:15 24 °C 12.3 °C 1015.5 hPa ESE 14.5 km/h 24.1 km/h 48 % 0 mm 274 W/m2
17:20 23.7 °C 12.7 °C 1015.5 hPa ESE 16.1 km/h 25.7 km/h 50 % 0 mm 274 W/m2
17:25 23.3 °C 12.6 °C 1015.5 hPa ESE 17.7 km/h 25.7 km/h 51 % 0 mm 255 W/m2
17:30 23.1 °C 13 °C 1015.1 hPa ESE 14.5 km/h 25.7 km/h 53 % 0 mm 230 W/m2
17:35 23 °C 13.2 °C 1015.1 hPa ESE 12.9 km/h 24.1 km/h 54 % 0 mm 218 W/m2
17:40 23 °C 12.9 °C 1015.1 hPa ESE 11.3 km/h 24.1 km/h 53 % 0 mm 204 W/m2
17:45 22.9 °C 12.8 °C 1015.1 hPa East 11.3 km/h 22.5 km/h 53 % 0 mm 199 W/m2
17:50 22.8 °C 13 °C 1015.1 hPa East 11.3 km/h 22.5 km/h 54 % 0 mm 190 W/m2
17:55 22.7 °C 13.2 °C 1015.1 hPa East 11.3 km/h 20.9 km/h 55 % 0 mm 188 W/m2
18:00 22.5 °C 13 °C 1014.8 hPa East 12.9 km/h 20.9 km/h 55 % 0 mm 174 W/m2
18:05 22.4 °C 13.2 °C 1014.8 hPa East 11.3 km/h 20.9 km/h 56 % 0 mm 174 W/m2
18:10 22.3 °C 13.1 °C 1014.8 hPa East 12.9 km/h 20.9 km/h 56 % 0 mm 178 W/m2
18:15 22.2 °C 13 °C 1014.8 hPa ESE 12.9 km/h 24.1 km/h 56 % 0 mm 176 W/m2
18:20 22.2 °C 13 °C 1014.8 hPa ESE 12.9 km/h 24.1 km/h 56 % 0 mm 186 W/m2
18:25 22.2 °C 13 °C 1014.8 hPa East 11.3 km/h 20.9 km/h 56 % 0 mm 188 W/m2
18:30 22.1 °C 12.9 °C 1014.4 hPa ESE 12.9 km/h 25.7 km/h 56 % 0 mm 158 W/m2
18:35 22 °C 12.8 °C 1014.4 hPa ESE 14.5 km/h 25.7 km/h 56 % 0 mm 162 W/m2
18:40 21.9 °C 13 °C 1014.4 hPa ESE 11.3 km/h 22.5 km/h 57 % 0 mm 163 W/m2
18:45 21.8 °C 12.9 °C 1014.4 hPa East 11.3 km/h 22.5 km/h 57 % 0 mm 183 W/m2
18:50 21.7 °C 12.8 °C 1014.4 hPa East 11.3 km/h 22.5 km/h 57 % 0 mm 135 W/m2
18:56 21.6 °C 13 °C 1014.4 hPa East 11.3 km/h 22.5 km/h 58 % 0 mm 125 W/m2
19:01 21.4 °C 13.1 °C 1014.4 hPa East 11.3 km/h 20.9 km/h 59 % 0 mm 123 W/m2
19:06 21.2 °C 12.9 °C 1014.4 hPa East 11.3 km/h 20.9 km/h 59 % 0 mm 118 W/m2
19:10 21.1 °C 13.1 °C 1014.4 hPa East 12.9 km/h 22.5 km/h 60 % 0 mm 116 W/m2
19:16 21 °C 13.2 °C 1014.4 hPa East 11.3 km/h 22.5 km/h 61 % 0 mm 153 W/m2
19:21 21 °C 13.4 °C 1014.4 hPa East 9.7 km/h 19.3 km/h 62 % 0 mm 116 W/m2
19:26 20.9 °C 13.6 °C 1014.4 hPa East 9.7 km/h 19.3 km/h 63 % 0 mm 128 W/m2
19:31 20.8 °C 13.5 °C 1014.4 hPa East 11.3 km/h 20.9 km/h 63 % 0 mm 132 W/m2
19:36 20.7 °C 13.7 °C 1014.4 hPa East 11.3 km/h 20.9 km/h 64 % 0 mm 134 W/m2
19:41 20.7 °C 13.7 °C 1014.4 hPa East 11.3 km/h 20.9 km/h 64 % 0 mm 123 W/m2
19:46 20.6 °C 13.8 °C 1014.1 hPa East 11.3 km/h 20.9 km/h 65 % 0 mm 114 W/m2
19:51 20.6 °C 13.8 °C 1014.1 hPa East 9.7 km/h 20.9 km/h 65 % 0 mm 100 W/m2
19:56 20.4 °C 13.8 °C 1014.1 hPa East 9.7 km/h 20.9 km/h 66 % 0 mm 86 W/m2
20:01 20.2 °C 13.7 °C 1014.1 hPa East 9.7 km/h 20.9 km/h 66 % 0 mm 77 W/m2
20:06 20.1 °C 13.8 °C 1014.1 hPa East 11.3 km/h 20.9 km/h 67 % 0 mm 70 W/m2
20:11 19.9 °C 13.6 °C 1014.1 hPa East 11.3 km/h 25.7 km/h 67 % 0 mm 65 W/m2
20:16 19.8 °C 13.7 °C 1014.1 hPa East 11.3 km/h 25.7 km/h 68 % 0 mm 58 W/m2
20:21 19.7 °C 13.8 °C 1014.1 hPa East 11.3 km/h 20.9 km/h 69 % 0 mm 54 W/m2
20:26 19.6 °C 13.8 °C 1014.1 hPa East 11.3 km/h 22.5 km/h 69 % 0 mm 47 W/m2
20:31 19.4 °C 13.6 °C 1014.1 hPa East 11.3 km/h 24.1 km/h 69 % 0 mm 42 W/m2
20:36 19.2 °C 13.6 °C 1014.1 hPa East 12.9 km/h 24.1 km/h 70 % 0 mm 37 W/m2
20:41 19 °C 13.4 °C 1014.1 hPa East 12.9 km/h 20.9 km/h 70 % 0 mm 32 W/m2
20:46 18.8 °C 13.4 °C 1014.1 hPa East 11.3 km/h 20.9 km/h 71 % 0 mm 28 W/m2
20:51 18.7 °C 13.3 °C 1014.1 hPa East 11.3 km/h 20.9 km/h 71 % 0 mm 25 W/m2
20:56 18.5 °C 13.2 °C 1014.1 hPa East 11.3 km/h 20.9 km/h 71 % 0 mm 19 W/m2
21:01 18.4 °C 13.3 °C 1014.1 hPa East 9.7 km/h 20.9 km/h 72 % 0 mm 16 W/m2
21:06 18.2 °C 13.1 °C 1014.1 hPa East 9.7 km/h 20.9 km/h 72 % 0 mm 12 W/m2
21:11 18.1 °C 13.2 °C 1014.1 hPa East 9.7 km/h 19.3 km/h 73 % 0 mm 9 W/m2
21:16 18 °C 13.3 °C 1014.1 hPa East 8 km/h 16.1 km/h 74 % 0 mm 5 W/m2
21:21 17.8 °C 13.1 °C 1014.1 hPa East 9.7 km/h 17.7 km/h 74 % 0 mm 0 W/m2
21:26 17.7 °C 13.2 °C 1014.1 hPa East 11.3 km/h 17.7 km/h 75 % 0 mm 0 W/m2
21:31 17.5 °C 13 °C 1014.1 hPa East 9.7 km/h 20.9 km/h 75 % 0 mm 0 W/m2
21:36 17.4 °C 13.1 °C 1014.1 hPa East 9.7 km/h 20.9 km/h 76 % 0 mm 0 W/m2
21:41 17.3 °C 13 °C 1014.1 hPa East 8 km/h 14.5 km/h 76 % 0 mm 0 W/m2
21:46 17.2 °C 12.9 °C 1014.1 hPa East 6.4 km/h 14.5 km/h 76 % 0 mm 0 W/m2
21:51 17.1 °C 12.8 °C 1013.8 hPa East 6.4 km/h 14.5 km/h 76 % 0 mm 0 W/m2
21:56 17 °C 12.7 °C 1013.8 hPa East 6.4 km/h 14.5 km/h 76 % 0 mm 0 W/m2
22:01 16.8 °C 12.7 °C 1013.8 hPa East 8 km/h 17.7 km/h 77 % 0 mm 0 W/m2
22:06 16.7 °C 12.7 °C 1013.8 hPa ENE 6.4 km/h 17.7 km/h 77 % 0 mm 0 W/m2
22:11 16.6 °C 12.7 °C 1013.8 hPa ENE 8 km/h 17.7 km/h 78 % 0 mm 0 W/m2
22:16 16.4 °C 12.7 °C 1013.8 hPa ENE 8 km/h 17.7 km/h 79 % 0 mm 0 W/m2
22:21 16.3 °C 12.7 °C 1013.8 hPa East 8 km/h 16.1 km/h 79 % 0 mm 0 W/m2
22:26 16.2 °C 12.7 °C 1013.8 hPa East 6.4 km/h 16.1 km/h 80 % 0 mm 0 W/m2
22:31 16.1 °C 12.7 °C 1013.8 hPa East 6.4 km/h 17.7 km/h 80 % 0 mm 0 W/m2
22:36 16.1 °C 12.8 °C 1013.8 hPa East 8 km/h 19.3 km/h 81 % 0 mm 0 W/m2
22:42 15.9 °C 12.7 °C 1013.8 hPa East 8 km/h 19.3 km/h 81 % 0 mm 0 W/m2
22:47 15.8 °C 12.6 °C 1013.8 hPa East 8 km/h 16.1 km/h 81 % 0 mm 0 W/m2
22:52 15.8 °C 12.7 °C 1013.4 hPa East 8 km/h 16.1 km/h 82 % 0 mm 0 W/m2
22:57 15.7 °C 12.6 °C 1013.4 hPa East 6.4 km/h 16.1 km/h 82 % 0 mm 0 W/m2
23:02 15.7 °C 12.8 °C 1013.4 hPa East 4.8 km/h 16.1 km/h 83 % 0 mm 0 W/m2
23:07 15.6 °C 12.7 °C 1013.8 hPa East 3.2 km/h 11.3 km/h 83 % 0 mm 0 W/m2
23:12 15.6 °C 12.9 °C 1013.4 hPa East 3.2 km/h 11.3 km/h 84 % 0 mm 0 W/m2
23:17 15.5 °C 12.8 °C 1013.8 hPa East 3.2 km/h 11.3 km/h 84 % 0 mm 0 W/m2
23:22 15.4 °C 12.7 °C 1013.8 hPa East 6.4 km/h 12.9 km/h 84 % 0 mm 0 W/m2
23:27 15.4 °C 12.9 °C 1013.8 hPa East 4.8 km/h 12.9 km/h 85 % 0 mm 0 W/m2
23:32 15.3 °C 12.8 °C 1013.4 hPa ENE 3.2 km/h 9.7 km/h 85 % 0 mm 0 W/m2
23:37 15.3 °C 12.9 °C 1013.4 hPa East 3.2 km/h 9.7 km/h 86 % 0 mm 0 W/m2
23:42 15.3 °C 12.9 °C 1013.4 hPa East 3.2 km/h 9.7 km/h 86 % 0 mm 0 W/m2
23:47 15.3 °C 12.9 °C 1013.8 hPa East 1.6 km/h 8 km/h 86 % 0 mm 0 W/m2
23:52 15.3 °C 12.9 °C 1013.4 hPa ENE 1.6 km/h 9.7 km/h 86 % 0 mm 0 W/m2
23:57 15.3 °C 13.2 °C 1013.4 hPa ENE 1.6 km/h 9.7 km/h 87 % 0 mm 0 W/m2
Delerius-Weather
Compliments of Weather Underground - 2.25 mb

Data updates at regular intervals.